createdAt,value
2023-04-18T00:02:11.261Z,13.17
2023-04-18T00:04:38.296Z,13.21
2023-04-18T00:07:05.222Z,13.29
2023-04-18T00:09:32.115Z,13.03
2023-04-18T00:11:59.004Z,13.65
2023-04-18T00:14:25.949Z,14.18
2023-04-18T00:16:54.338Z,14.46
2023-04-18T00:19:21.744Z,13.12
2023-04-18T00:21:49.616Z,13.12
2023-04-18T00:24:16.861Z,13.97
2023-04-18T00:26:43.697Z,13.91
2023-04-18T00:29:10.605Z,14.03
2023-04-18T00:31:37.576Z,13.67
2023-04-18T00:34:04.504Z,13.74
2023-04-18T00:36:31.364Z,14.11
2023-04-18T00:38:58.231Z,14.28
2023-04-18T00:41:27.710Z,14.96
2023-04-18T00:43:55.282Z,14.64
2023-04-18T00:46:22.212Z,15.09
2023-04-18T00:48:49.516Z,14.87
2023-04-18T00:51:16.467Z,14.85
2023-04-18T00:53:44.593Z,14.64
2023-04-18T00:56:11.781Z,14.35
2023-04-18T00:58:40.741Z,13.92
2023-04-18T01:01:08.109Z,13.46
2023-04-18T01:03:35.423Z,13.88
2023-04-18T01:06:02.477Z,13.84
2023-04-18T01:08:29.695Z,14.13
2023-04-18T01:10:56.532Z,14.34
2023-04-18T01:13:23.403Z,14.15
2023-04-18T01:15:51.031Z,14.36
2023-04-18T01:18:18.125Z,13.09
2023-04-18T01:20:49.949Z,13.21
2023-04-18T01:23:18.700Z,13.20
2023-04-18T01:25:46.859Z,13.62
2023-04-18T01:28:14.735Z,13.41
2023-04-18T01:30:41.823Z,13.53
2023-04-18T01:33:08.767Z,13.97
2023-04-18T01:35:35.874Z,13.55
2023-04-18T01:38:02.752Z,14.74
2023-04-18T01:40:30.408Z,14.64
2023-04-18T01:42:57.263Z,14.89
2023-04-18T01:45:24.269Z,14.06
2023-04-18T01:47:51.261Z,14.00
2023-04-18T01:50:18.220Z,14.06
2023-04-18T01:52:45.154Z,14.48
2023-04-18T01:55:12.255Z,13.98
2023-04-18T01:57:39.256Z,14.53
2023-04-18T02:00:07.134Z,14.60
2023-04-18T02:02:34.312Z,14.51
2023-04-18T02:05:01.420Z,14.75
2023-04-18T02:07:28.407Z,14.77
2023-04-18T02:09:55.308Z,15.18
2023-04-18T02:12:22.247Z,16.04
2023-04-18T02:14:54.282Z,15.20
2023-04-18T02:17:23.686Z,15.08
2023-04-18T02:19:53.959Z,15.41
2023-04-18T02:22:20.802Z,14.88
2023-04-18T02:24:47.675Z,15.12
2023-04-18T02:27:14.568Z,14.98
2023-04-18T02:29:41.459Z,15.29
2023-04-18T02:32:09.271Z,14.90
2023-04-18T02:34:36.975Z,15.12
2023-04-18T02:37:04.467Z,15.12
2023-04-18T02:39:31.821Z,15.40
2023-04-18T02:41:58.983Z,14.73
2023-04-18T02:44:25.896Z,14.14
2023-04-18T02:46:52.774Z,14.50
2023-04-18T02:49:19.981Z,14.75
2023-04-18T02:51:46.971Z,14.64
2023-04-18T02:54:13.987Z,15.55
2023-04-18T02:56:42.978Z,14.58
2023-04-18T02:59:09.877Z,14.91
2023-04-18T03:01:37.051Z,14.98
2023-04-18T03:04:04.062Z,15.53
2023-04-18T03:06:31.913Z,15.74
2023-04-18T03:08:58.957Z,15.32
2023-04-18T03:11:25.982Z,14.90
2023-04-18T03:13:53.987Z,14.38
2023-04-18T03:16:21.070Z,14.88
2023-04-18T03:18:48.022Z,15.82
2023-04-18T03:21:15.047Z,14.86
2023-04-18T03:23:41.908Z,14.83
2023-04-18T03:26:09.254Z,14.57
2023-04-18T03:28:36.107Z,14.82
2023-04-18T03:31:03.047Z,14.75
2023-04-18T03:33:29.900Z,15.24
2023-04-18T03:35:56.840Z,14.93
2023-04-18T03:38:23.727Z,14.92
2023-04-18T03:40:50.604Z,14.49
2023-04-18T03:43:18.495Z,14.79
2023-04-18T03:45:47.518Z,14.08
2023-04-18T03:48:14.839Z,14.57
2023-04-18T03:50:41.796Z,14.37
2023-04-18T03:53:08.674Z,14.29
2023-04-18T03:55:35.691Z,13.83
2023-04-18T03:58:02.613Z,13.94
2023-04-18T04:00:29.570Z,15.12
2023-04-18T04:02:56.643Z,14.86
2023-04-18T04:05:23.773Z,15.17
2023-04-18T04:07:50.784Z,14.94
2023-04-18T04:10:17.662Z,15.14
2023-04-18T04:12:44.585Z,15.21
2023-04-18T04:15:12.070Z,15.36
2023-04-18T04:17:39.108Z,14.91
2023-04-18T04:20:06.579Z,15.09
2023-04-18T04:22:34.588Z,15.84
2023-04-18T04:25:01.587Z,15.57
2023-04-18T04:27:28.469Z,15.58
2023-04-18T04:29:56.600Z,15.95
2023-04-18T04:32:24.198Z,16.23
2023-04-18T04:34:51.087Z,15.93
2023-04-18T04:37:18.905Z,16.13
2023-04-18T04:39:46.325Z,15.69
2023-04-18T04:42:13.630Z,15.37
2023-04-18T04:44:41.879Z,15.61
2023-04-18T04:47:08.768Z,16.31
2023-04-18T04:49:35.905Z,16.39
2023-04-18T04:52:03.237Z,16.36
2023-04-18T04:54:30.532Z,16.15
2023-04-18T04:56:57.465Z,15.49
2023-04-18T04:59:24.777Z,16.35
2023-04-18T05:01:51.715Z,16.03
2023-04-18T05:04:18.865Z,15.11
2023-04-18T05:06:46.289Z,14.98
2023-04-18T05:09:13.781Z,16.29
2023-04-18T05:11:40.715Z,16.56
2023-04-18T05:14:07.678Z,16.96
2023-04-18T05:16:34.552Z,17.21
2023-04-18T05:19:01.540Z,17.06
2023-04-18T05:21:29.125Z,16.66
2023-04-18T05:23:58.936Z,17.59
2023-04-18T05:26:25.821Z,17.74
2023-04-18T05:28:52.685Z,17.32
2023-04-18T05:31:19.640Z,17.73
2023-04-18T05:33:46.567Z,17.99
2023-04-18T05:36:13.479Z,17.69
2023-04-18T05:38:40.395Z,17.87
2023-04-18T05:41:07.219Z,18.05
2023-04-18T05:43:34.154Z,18.14
2023-04-18T05:46:01.060Z,17.80
2023-04-18T05:48:27.958Z,16.54
2023-04-18T05:50:54.843Z,15.97
2023-04-18T05:53:21.889Z,14.77
2023-04-18T05:55:49.055Z,14.09
2023-04-18T05:58:16.314Z,12.82
2023-04-18T06:00:48.162Z,13.81
2023-04-18T06:03:15.254Z,13.29
2023-04-18T06:05:42.372Z,12.51
2023-04-18T06:08:09.347Z,12.38
2023-04-18T06:10:38.898Z,12.42
2023-04-18T06:13:06.217Z,13.23
2023-04-18T06:15:33.118Z,12.41
2023-04-18T06:17:59.989Z,13.06
2023-04-18T06:20:26.913Z,12.83
2023-04-18T06:22:53.815Z,12.26
2023-04-18T06:25:20.992Z,12.62
2023-04-18T06:27:50.196Z,12.63
2023-04-18T06:30:17.071Z,12.46
2023-04-18T06:32:44.098Z,12.37
2023-04-18T06:35:11.184Z,12.14
2023-04-18T06:37:38.084Z,12.61
2023-04-18T06:40:05.728Z,12.62
2023-04-18T06:42:32.640Z,11.65
2023-04-18T06:44:59.568Z,12.53
2023-04-18T06:47:26.698Z,12.39
2023-04-18T06:49:55.576Z,12.14
2023-04-18T06:52:22.550Z,12.08
2023-04-18T06:54:49.429Z,12.07
2023-04-18T06:57:16.354Z,12.61
2023-04-18T06:59:43.315Z,12.10
2023-04-18T07:02:10.222Z,12.89
2023-04-18T07:04:37.200Z,12.43
2023-04-18T07:07:05.370Z,13.38
2023-04-18T07:09:32.453Z,14.02
2023-04-18T07:11:59.378Z,13.55
2023-04-18T07:14:28.186Z,14.01
2023-04-18T07:16:56.175Z,13.92
2023-04-18T07:19:23.115Z,12.81
2023-04-18T07:21:50.088Z,12.99
2023-04-18T07:24:17.021Z,14.00
2023-04-18T07:26:44.010Z,14.58
2023-04-18T07:29:20.376Z,14.87
2023-04-18T07:31:47.543Z,14.84
2023-04-18T07:34:15.345Z,14.76
2023-04-18T07:36:42.834Z,14.82
2023-04-18T07:39:13.729Z,14.74
2023-04-18T07:41:40.590Z,15.14
2023-04-18T07:44:07.552Z,14.46
2023-04-18T07:46:34.543Z,14.64
2023-04-18T07:49:02.532Z,14.00
2023-04-18T07:51:31.897Z,14.27
2023-04-18T07:53:59.669Z,14.01
2023-04-18T07:56:27.357Z,13.67
2023-04-18T07:58:54.366Z,13.54
2023-04-18T08:01:24.310Z,13.50
2023-04-18T08:03:53.513Z,12.98
2023-04-18T08:06:21.561Z,12.67
2023-04-18T08:08:51.389Z,12.99
2023-04-18T08:11:18.282Z,13.06
2023-04-18T08:13:45.185Z,12.60
2023-04-18T08:16:12.856Z,12.60
2023-04-18T08:18:41.288Z,12.80
2023-04-18T08:21:08.134Z,12.64
2023-04-18T08:23:34.995Z,12.70
2023-04-18T08:26:01.867Z,12.52
2023-04-18T08:28:29.756Z,12.47
2023-04-18T08:30:56.953Z,12.29
2023-04-18T08:33:24.597Z,12.62
2023-04-18T08:35:52.008Z,12.21
2023-04-18T08:38:19.370Z,12.22
2023-04-18T08:40:46.631Z,12.62
2023-04-18T08:43:15.395Z,12.34
2023-04-18T08:45:43.371Z,12.58
2023-04-18T08:48:16.523Z,12.61
2023-04-18T08:50:45.688Z,12.50
2023-04-18T08:53:12.594Z,12.55
2023-04-18T08:55:40.681Z,12.65
2023-04-18T08:58:08.144Z,12.28
2023-04-18T09:00:35.399Z,12.47
2023-04-18T09:03:03.141Z,13.08
2023-04-18T09:05:30.148Z,12.58
2023-04-18T09:07:57.072Z,12.70
2023-04-18T09:10:33.143Z,12.12
2023-04-18T09:13:03.427Z,12.41
2023-04-18T09:15:33.919Z,12.23
2023-04-18T09:18:03.065Z,13.29
2023-04-18T09:20:38.078Z,13.54
2023-04-18T09:23:11.340Z,12.90
2023-04-18T09:25:49.175Z,13.82
2023-04-18T09:28:29.061Z,14.28
2023-04-18T09:31:11.994Z,13.53
2023-04-18T09:33:45.471Z,13.14
2023-04-18T09:36:20.593Z,13.25
2023-04-18T09:38:51.683Z,13.02
2023-04-18T09:41:21.656Z,13.64
2023-04-18T09:43:48.719Z,14.07
2023-04-18T09:46:17.992Z,13.54
2023-04-18T09:48:45.011Z,13.74
2023-04-18T09:51:15.128Z,14.15
2023-04-18T09:53:47.790Z,14.05
2023-04-18T09:56:26.324Z,14.13
2023-04-18T09:59:12.663Z,13.20
2023-04-18T10:01:46.063Z,13.85
2023-04-18T10:04:14.985Z,13.60
2023-04-18T10:06:45.066Z,13.72
2023-04-18T10:09:12.679Z,14.03
2023-04-18T10:11:39.750Z,14.17
2023-04-18T10:14:12.831Z,14.13
2023-04-18T10:16:40.130Z,13.64
2023-04-18T10:19:27.301Z,13.13
2023-04-18T10:21:55.814Z,13.16
2023-04-18T10:24:48.710Z,13.95
2023-04-18T10:27:17.137Z,13.90
2023-04-18T10:30:02.081Z,13.69
2023-04-18T10:32:29.051Z,13.83
2023-04-18T10:34:56.301Z,13.64
2023-04-18T10:37:23.156Z,14.03
2023-04-18T10:40:06.004Z,14.17
2023-04-18T10:42:48.311Z,13.41
2023-04-18T10:45:25.133Z,14.11
2023-04-18T10:48:31.352Z,14.38
2023-04-18T10:51:14.193Z,13.68
2023-04-18T10:53:49.260Z,13.94
2023-04-18T10:56:16.865Z,14.94
2023-04-18T10:59:03.399Z,14.40
2023-04-18T11:01:33.011Z,14.88
2023-04-18T11:04:00.790Z,14.35
2023-04-18T11:06:28.345Z,14.29
2023-04-18T11:09:11.988Z,14.26
2023-04-18T11:11:38.951Z,14.11
2023-04-18T11:14:05.787Z,14.25
2023-04-18T11:16:33.866Z,14.04
2023-04-18T11:19:01.208Z,14.70
2023-04-18T11:21:30.638Z,14.94
2023-04-18T11:23:58.337Z,15.48
2023-04-18T11:26:29.156Z,15.73
2023-04-18T11:28:59.403Z,15.25
2023-04-18T11:31:26.335Z,14.72
2023-04-18T11:33:56.595Z,14.25
2023-04-18T11:36:23.452Z,14.80
2023-04-18T11:38:50.314Z,14.97
2023-04-18T11:41:17.174Z,14.86
2023-04-18T11:43:45.431Z,14.66
2023-04-18T11:46:13.493Z,15.17
2023-04-18T11:48:42.283Z,14.71
2023-04-18T11:51:32.102Z,15.50
2023-04-18T11:53:58.934Z,16.00
2023-04-18T11:56:25.869Z,16.33
2023-04-18T11:58:52.897Z,16.24
2023-04-18T12:01:23.432Z,16.04
2023-04-18T12:04:10.620Z,16.53
2023-04-18T12:06:51.034Z,16.06
2023-04-18T12:09:18.554Z,16.04
2023-04-18T12:12:00.250Z,16.30
2023-04-18T12:14:27.541Z,15.64
2023-04-18T12:16:54.645Z,15.74
2023-04-18T12:19:27.686Z,15.84
2023-04-18T12:22:00.753Z,16.55
2023-04-18T12:24:30.135Z,16.59
2023-04-18T12:26:58.247Z,16.88
2023-04-18T12:29:26.042Z,17.24
2023-04-18T12:31:53.237Z,17.45
2023-04-18T12:34:20.420Z,17.25
2023-04-18T12:36:47.365Z,18.03
2023-04-18T12:39:14.354Z,18.06
2023-04-18T12:41:41.176Z,17.64
2023-04-18T12:44:08.009Z,17.04
2023-04-18T12:46:34.926Z,16.75
2023-04-18T12:49:01.843Z,16.31
2023-04-18T12:51:28.666Z,16.19
2023-04-18T12:53:55.609Z,15.71
2023-04-18T12:56:22.496Z,15.81
2023-04-18T12:58:49.647Z,15.65
2023-04-18T13:01:17.224Z,15.34
2023-04-18T13:03:45.555Z,15.16
2023-04-18T13:06:15.914Z,15.45
2023-04-18T13:08:42.910Z,15.77
2023-04-18T13:11:09.768Z,16.06
2023-04-18T13:13:36.622Z,15.74
2023-04-18T13:16:03.636Z,16.00
2023-04-18T13:18:30.518Z,16.00
2023-04-18T13:20:57.394Z,16.49
2023-04-18T13:23:24.206Z,15.62
2023-04-18T13:25:51.076Z,16.12
2023-04-18T13:28:17.948Z,16.09
2023-04-18T13:30:44.775Z,16.32
2023-04-18T13:33:11.728Z,16.27
2023-04-18T13:35:38.625Z,16.27
2023-04-18T13:38:05.489Z,16.28
2023-04-18T13:40:33.611Z,16.72
2023-04-18T13:43:00.536Z,17.14
2023-04-18T13:45:27.557Z,17.78
2023-04-18T13:47:54.577Z,17.26
2023-04-18T13:50:21.641Z,17.54
2023-04-18T13:52:49.413Z,18.18
2023-04-18T13:55:16.367Z,17.55
2023-04-18T13:57:43.240Z,17.80
2023-04-18T14:00:12.947Z,18.23
2023-04-18T14:02:40.196Z,18.07
2023-04-18T14:05:07.713Z,17.38
2023-04-18T14:07:35.523Z,17.40
2023-04-18T14:10:02.468Z,17.33
2023-04-18T14:12:29.293Z,17.33
2023-04-18T14:14:56.134Z,17.71
2023-04-18T14:17:23.002Z,18.01
2023-04-18T14:19:51.480Z,18.48
2023-04-18T14:22:18.333Z,18.63
2023-04-18T14:24:45.206Z,18.42
2023-04-18T14:27:12.099Z,18.15
2023-04-18T14:29:38.973Z,18.60
2023-04-18T14:32:07.199Z,18.28
2023-04-18T14:34:35.315Z,17.79
2023-04-18T14:37:03.808Z,16.98
2023-04-18T14:39:31.216Z,16.16
2023-04-18T14:41:58.160Z,16.11
2023-04-18T14:44:25.081Z,16.18
2023-04-18T14:46:51.964Z,16.64
2023-04-18T14:49:18.869Z,18.09
2023-04-18T14:51:45.791Z,17.31
2023-04-18T14:54:12.945Z,17.68
2023-04-18T14:56:39.829Z,17.75
2023-04-18T14:59:06.753Z,18.57
2023-04-18T15:01:33.687Z,18.30
2023-04-18T15:04:00.744Z,17.51
2023-04-18T15:06:28.597Z,17.56
2023-04-18T15:08:56.027Z,17.28
2023-04-18T15:11:23.287Z,16.81
2023-04-18T15:13:50.910Z,16.70
2023-04-18T15:16:17.837Z,16.97
2023-04-18T15:18:45.241Z,17.40
2023-04-18T15:21:12.148Z,17.87
2023-04-18T15:23:39.104Z,17.68
2023-04-18T15:26:06.334Z,17.23
2023-04-18T15:28:33.229Z,17.45
2023-04-18T15:31:00.250Z,16.72
2023-04-18T15:33:27.205Z,16.96
2023-04-18T15:35:55.742Z,16.53
2023-04-18T15:38:22.655Z,16.54
2023-04-18T15:40:49.581Z,16.40
2023-04-18T15:43:17.365Z,16.90
2023-04-18T15:45:44.780Z,17.06
2023-04-18T15:48:13.274Z,16.47
2023-04-18T15:50:42.614Z,17.14
2023-04-18T15:53:09.561Z,16.83
2023-04-18T15:55:36.544Z,17.52
2023-04-18T15:58:03.692Z,16.95
2023-04-18T16:00:30.628Z,17.50
2023-04-18T16:02:57.573Z,17.70
2023-04-18T16:05:24.507Z,16.65
2023-04-18T16:07:53.890Z,16.76
2023-04-18T16:10:20.925Z,15.85
2023-04-18T16:12:47.943Z,15.21
2023-04-18T16:15:14.845Z,13.66
2023-04-18T16:17:41.745Z,13.44
2023-04-18T16:20:09.304Z,13.30
2023-04-18T16:22:36.745Z,13.01
2023-04-18T16:25:04.572Z,13.28
2023-04-18T16:27:31.509Z,13.22
2023-04-18T16:29:59.466Z,13.52
2023-04-18T16:32:26.577Z,13.23
2023-04-18T16:34:53.509Z,13.36
2023-04-18T16:37:20.499Z,13.79
2023-04-18T16:39:50.366Z,14.18
2023-04-18T16:42:17.221Z,14.72
2023-04-18T16:44:45.437Z,14.56
2023-04-18T16:47:12.315Z,15.01
2023-04-18T16:49:45.000Z,15.62
2023-04-18T16:52:11.912Z,15.97
2023-04-18T16:54:38.812Z,15.65
2023-04-18T16:57:05.771Z,15.69
2023-04-18T16:59:46.072Z,15.44
2023-04-18T17:02:13.115Z,14.90
2023-04-18T17:04:40.221Z,15.11
2023-04-18T17:07:07.207Z,14.88
2023-04-18T17:10:31.548Z,13.69
2023-04-18T17:12:58.822Z,14.32
2023-04-18T17:15:27.289Z,15.17
2023-04-18T17:17:56.019Z,14.94
2023-04-18T17:20:23.743Z,14.79
2023-04-18T17:22:51.240Z,14.97
2023-04-18T17:25:18.178Z,15.30
2023-04-18T17:27:45.048Z,14.93
2023-04-18T17:30:12.197Z,15.34
2023-04-18T17:32:45.963Z,15.68
2023-04-18T17:35:14.795Z,16.26
2023-04-18T17:38:01.267Z,16.25
2023-04-18T17:40:28.337Z,16.37
2023-04-18T17:42:55.172Z,14.89
2023-04-18T17:45:22.075Z,15.61
2023-04-18T17:47:57.673Z,15.43
2023-04-18T17:50:24.599Z,14.97
2023-04-18T17:52:51.462Z,15.28
2023-04-18T17:55:18.644Z,15.58
2023-04-18T17:57:45.595Z,16.55
2023-04-18T18:00:13.947Z,16.63
2023-04-18T18:02:42.928Z,16.99
2023-04-18T18:05:13.971Z,17.03
2023-04-18T18:07:43.279Z,16.51
2023-04-18T18:10:19.188Z,16.61
2023-04-18T18:12:46.336Z,16.62
2023-04-18T18:15:13.372Z,16.60
2023-04-18T18:17:40.334Z,16.35
2023-04-18T18:20:10.593Z,16.57
2023-04-18T18:22:37.550Z,15.91
2023-04-18T18:25:05.574Z,15.63
2023-04-18T18:27:32.480Z,16.18
2023-04-18T18:30:18.413Z,15.88
2023-04-18T18:32:45.281Z,15.66
2023-04-18T18:35:12.738Z,16.27
2023-04-18T18:37:39.601Z,15.43
2023-04-18T18:40:07.478Z,16.11
2023-04-18T18:42:34.524Z,16.15
2023-04-18T18:45:01.821Z,15.87
2023-04-18T18:47:30.629Z,15.54
2023-04-18T18:50:12.867Z,16.64
2023-04-18T18:52:43.567Z,14.14
2023-04-18T18:55:11.073Z,13.20
2023-04-18T18:57:37.997Z,12.20
2023-04-18T19:00:09.791Z,12.26
2023-04-18T19:02:37.382Z,12.60
2023-04-18T19:05:05.860Z,12.80
2023-04-18T19:07:33.758Z,12.72
2023-04-18T19:10:10.250Z,14.29
2023-04-18T19:12:38.035Z,15.17
2023-04-18T19:15:06.077Z,15.08
2023-04-18T19:17:33.030Z,14.96
2023-04-18T19:23:04.562Z,15.30
2023-04-18T19:25:31.493Z,15.85
2023-04-18T19:28:35.930Z,15.28
2023-04-18T19:31:02.829Z,15.38
2023-04-18T19:33:30.417Z,16.11
2023-04-18T19:35:57.321Z,16.08
2023-04-18T19:38:43.509Z,16.54
2023-04-18T19:41:10.444Z,15.10
2023-04-18T19:43:38.561Z,14.23
2023-04-18T19:46:05.517Z,13.83
2023-04-18T19:48:43.407Z,14.27
2023-04-18T19:51:10.573Z,14.43
2023-04-18T19:53:37.466Z,15.57
2023-04-18T19:56:04.519Z,16.28
2023-04-18T19:58:34.938Z,15.21
2023-04-18T20:01:02.238Z,13.58
2023-04-18T20:03:29.291Z,13.01
2023-04-18T20:05:56.401Z,11.94
2023-04-18T20:08:25.449Z,12.60
2023-04-18T20:10:52.324Z,12.81
2023-04-18T20:13:19.258Z,12.08
2023-04-18T20:15:46.130Z,12.10
2023-04-18T20:18:13.041Z,11.80
2023-04-18T20:20:39.880Z,12.00
2023-04-18T20:23:06.549Z,12.51
2023-04-18T20:25:36.454Z,13.21
2023-04-18T20:28:11.115Z,12.36
2023-04-18T20:30:38.039Z,12.42
2023-04-18T20:33:05.012Z,13.16
2023-04-18T20:35:31.900Z,13.88
2023-04-18T20:38:00.390Z,14.56
2023-04-18T20:40:28.295Z,15.33
2023-04-18T20:42:58.013Z,15.38
2023-04-18T20:45:25.357Z,15.30
2023-04-18T20:47:52.408Z,15.03
2023-04-18T20:50:20.659Z,13.72
2023-04-18T20:52:47.796Z,14.94
2023-04-18T20:55:16.888Z,14.93
2023-04-18T20:57:43.784Z,15.49
2023-04-18T21:00:14.284Z,15.72
2023-04-18T21:02:41.848Z,15.93
2023-04-18T21:05:09.151Z,15.74
2023-04-18T21:07:36.393Z,15.99
2023-04-18T21:10:04.208Z,14.84
2023-04-18T21:12:31.047Z,14.21
2023-04-18T21:14:57.910Z,14.59
2023-04-18T21:17:25.699Z,15.03
2023-04-18T21:19:52.824Z,13.97
2023-04-18T21:22:19.808Z,13.42
2023-04-18T21:24:47.023Z,14.39
2023-04-18T21:27:15.948Z,14.88
2023-04-18T21:29:48.057Z,16.02
2023-04-18T21:32:14.900Z,15.69
2023-04-18T21:34:41.775Z,16.41
2023-04-18T21:37:08.660Z,15.96
2023-04-18T21:39:45.758Z,15.20
2023-04-18T21:42:12.884Z,15.02
2023-04-18T21:44:39.771Z,15.30
2023-04-18T21:47:06.600Z,14.71
2023-04-18T21:49:34.492Z,15.21
2023-04-18T21:52:01.395Z,15.87
2023-04-18T21:54:28.212Z,14.62
2023-04-18T21:56:55.033Z,13.85
2023-04-18T21:59:44.689Z,13.39
2023-04-18T22:02:11.717Z,12.81
2023-04-18T22:04:42.908Z,12.71
2023-04-18T22:07:11.506Z,12.35
2023-04-18T22:09:48.549Z,12.77
2023-04-18T22:12:15.725Z,12.54
2023-04-18T22:14:48.328Z,12.91
2023-04-18T22:17:15.290Z,12.01
2023-04-18T22:19:44.569Z,12.48
2023-04-18T22:22:11.709Z,12.95
2023-04-18T22:24:38.610Z,13.95
2023-04-18T22:27:05.956Z,13.48
2023-04-18T22:29:46.977Z,13.44
2023-04-18T22:32:13.884Z,13.15
2023-04-18T22:34:40.851Z,13.89
2023-04-18T22:37:07.679Z,14.52
2023-04-18T22:39:50.742Z,14.97
2023-04-18T22:42:17.729Z,15.75
2023-04-18T22:44:44.620Z,16.16
2023-04-18T22:47:11.662Z,16.20
2023-04-18T22:49:54.169Z,17.16
2023-04-18T22:52:23.893Z,15.87
2023-04-18T22:54:53.998Z,16.68
2023-04-18T22:57:21.136Z,16.28
2023-04-18T22:59:49.001Z,16.56
2023-04-18T23:02:16.235Z,16.60
2023-04-18T23:04:45.483Z,17.17
2023-04-18T23:07:12.425Z,17.64
2023-04-18T23:09:39.293Z,17.25
2023-04-18T23:12:06.182Z,16.60
2023-04-18T23:14:34.511Z,16.23
2023-04-18T23:17:01.661Z,16.60
2023-04-18T23:19:28.553Z,16.82
2023-04-18T23:21:55.667Z,16.11
2023-04-18T23:24:22.524Z,16.73
2023-04-18T23:26:49.399Z,16.73
2023-04-18T23:29:26.329Z,17.04
2023-04-18T23:31:53.274Z,16.74
2023-04-18T23:34:20.206Z,16.76
2023-04-18T23:36:47.326Z,15.98
2023-04-18T23:39:47.487Z,16.12
2023-04-18T23:42:14.349Z,16.88
2023-04-18T23:44:41.213Z,16.59
2023-04-18T23:47:08.121Z,17.25
2023-04-18T23:49:59.747Z,17.06
2023-04-18T23:52:26.614Z,17.17
2023-04-18T23:54:53.538Z,16.75
2023-04-18T23:57:20.404Z,16.51
